Terminal Aerodrome Forecast
Issued by NWS Wilmington, OH

Current Version | Previous Version | Text Only | Print | Product List | Glossary Off
Versions: 1 2 3 4 5 6 7 8 9 10 11 12 13 14 15 16 17

000
FTUS41 KILN 030500
TAFILN
TAF
KILN 030520Z 0306/0406 21003KT P6SM BKN250
     FM031400 21010KT P6SM SCT070 SCT250
     FM040000 18005KT P6SM SKC=

USA.gov is the U.S. government's official web portal to all federal, state and local government web resources and services.